createdAt,value
2024-02-05T00:01:28.616Z,66.01
2024-02-05T00:04:50.203Z,66.45
2024-02-05T00:08:13.279Z,65.94
2024-02-05T00:11:29.125Z,66.28
2024-02-05T00:14:51.348Z,66.84
2024-02-05T00:18:12.842Z,66.93
2024-02-05T00:21:33.129Z,67.59
2024-02-05T00:24:46.797Z,67.07
2024-02-05T00:27:59.879Z,67.69
2024-02-05T00:31:04.827Z,68.49
2024-02-05T00:34:21.605Z,68.44
2024-02-05T00:37:39.832Z,68.79
2024-02-05T00:40:54.371Z,69.26
2024-02-05T00:44:14.280Z,68.74
2024-02-05T00:47:38.173Z,69.82
2024-02-05T00:50:48.707Z,69.77
2024-02-05T00:54:12.360Z,70.11
2024-02-05T00:57:51.814Z,71.38
2024-02-05T01:01:06.582Z,72.46
2024-02-05T01:04:30.018Z,72.60
2024-02-05T01:07:45.731Z,73.19
2024-02-05T01:10:56.079Z,73.83
2024-02-05T01:14:05.118Z,73.61
2024-02-05T01:17:29.983Z,74.26
2024-02-05T01:20:49.738Z,74.09
2024-02-05T01:24:07.096Z,74.75
2024-02-05T01:27:47.120Z,75.40
2024-02-05T01:31:07.087Z,74.94
2024-02-05T01:34:28.125Z,75.05
2024-02-05T01:37:33.042Z,74.77
2024-02-05T01:40:42.440Z,74.95
2024-02-05T01:43:53.847Z,74.36
2024-02-05T01:46:58.619Z,75.51
2024-02-05T01:50:10.423Z,74.97
2024-02-05T01:53:30.310Z,74.76
2024-02-05T01:56:50.908Z,74.18
2024-02-05T01:59:55.697Z,73.07
2024-02-05T02:03:04.329Z,73.52
2024-02-05T02:06:14.597Z,72.49
2024-02-05T02:09:39.673Z,72.88
2024-02-05T02:12:49.713Z,72.71
2024-02-05T02:16:09.575Z,72.92
2024-02-05T02:19:51.477Z,72.59
2024-02-05T02:23:13.506Z,72.08
2024-02-05T02:26:25.346Z,71.50
2024-02-05T02:29:34.699Z,70.45
2024-02-05T02:33:32.396Z,70.91
2024-02-05T02:36:45.799Z,69.53
2024-02-05T02:40:12.168Z,69.43
2024-02-05T02:43:22.284Z,69.28
2024-02-05T02:46:42.787Z,69.40
2024-02-05T02:49:54.801Z,69.03
2024-02-05T02:53:01.856Z,69.71
2024-02-05T02:56:07.686Z,69.31
2024-02-05T02:59:19.479Z,69.33
2024-02-05T03:02:36.537Z,69.93
2024-02-05T03:05:55.784Z,70.10
2024-02-05T03:09:15.139Z,69.92
2024-02-05T03:12:41.769Z,69.49
2024-02-05T03:16:07.056Z,69.41
2024-02-05T03:19:32.530Z,68.93
2024-02-05T03:22:58.496Z,69.32
2024-02-05T03:26:10.585Z,68.26
2024-02-05T03:29:27.974Z,68.65
2024-02-05T03:32:36.241Z,69.05
2024-02-05T03:35:49.501Z,69.22
2024-02-05T03:38:55.155Z,69.67
2024-02-05T03:42:03.074Z,69.74
2024-02-05T03:45:28.197Z,69.22
2024-02-05T03:49:01.147Z,69.97
2024-02-05T03:52:09.183Z,71.83
2024-02-05T03:55:27.436Z,72.58
2024-02-05T03:58:49.081Z,71.25
2024-02-05T04:01:59.142Z,72.76
2024-02-05T04:05:14.199Z,72.65
2024-02-05T04:08:19.169Z,73.57
2024-02-05T04:11:37.078Z,74.07
2024-02-05T04:15:00.524Z,72.68
2024-02-05T04:22:15.028Z,72.09
2024-02-05T04:25:32.080Z,72.57
2024-02-05T04:28:37.710Z,72.43
2024-02-05T04:31:42.674Z,72.02
2024-02-05T04:34:59.624Z,71.74
2024-02-05T04:38:21.968Z,71.40
2024-02-05T04:41:43.800Z,71.34
2024-02-05T04:44:57.880Z,71.46
2024-02-05T04:48:22.886Z,71.60
2024-02-05T04:51:36.554Z,71.47
2024-02-05T04:55:00.310Z,71.38
2024-02-05T04:58:16.963Z,71.94
2024-02-05T05:01:38.750Z,72.57
2024-02-05T05:05:00.906Z,72.27
2024-02-05T05:08:17.894Z,71.28
2024-02-05T05:11:39.914Z,70.63
2024-02-05T05:15:03.194Z,70.34
2024-02-05T05:18:30.249Z,69.98
2024-02-05T05:21:39.468Z,68.64
2024-02-05T05:25:01.166Z,68.59
2024-02-05T05:28:12.489Z,68.39
2024-02-05T05:31:31.609Z,67.82
2024-02-05T05:34:51.477Z,67.40
2024-02-05T05:38:10.028Z,67.61
2024-02-05T05:41:17.698Z,67.11
2024-02-05T05:44:28.397Z,67.04
2024-02-05T05:47:55.897Z,66.39
2024-02-05T05:51:10.418Z,67.14
2024-02-05T05:54:31.604Z,67.27
2024-02-05T05:57:58.778Z,67.11
2024-02-05T06:01:16.092Z,66.13
2024-02-05T06:04:36.625Z,66.46
2024-02-05T06:07:56.826Z,65.07
2024-02-05T06:11:17.362Z,64.97
2024-02-05T06:14:35.696Z,64.76
2024-02-05T06:18:00.960Z,64.28
2024-02-05T06:21:12.746Z,63.82
2024-02-05T06:24:38.430Z,63.97
2024-02-05T06:27:55.538Z,63.61
2024-02-05T06:31:02.153Z,63.15
2024-02-05T06:34:13.874Z,62.74
2024-02-05T06:37:38.369Z,62.52
2024-02-05T06:41:11.688Z,61.95
2024-02-05T06:44:45.674Z,62.44
2024-02-05T06:48:51.814Z,62.05
2024-02-05T06:52:34.715Z,61.50
2024-02-05T06:55:56.176Z,61.02
2024-02-05T06:59:18.509Z,61.11
2024-02-05T07:02:47.794Z,60.73
2024-02-05T07:06:20.015Z,60.13
2024-02-05T07:09:51.764Z,60.18
2024-02-05T07:13:13.650Z,60.09
2024-02-05T07:16:32.816Z,60.30
2024-02-05T07:19:56.284Z,60.03
2024-02-05T07:23:33.124Z,59.70
2024-02-05T07:27:05.192Z,59.34
2024-02-05T07:30:32.341Z,59.58
2024-02-05T07:33:45.359Z,59.46
2024-02-05T07:37:05.729Z,58.72
2024-02-05T07:41:09.981Z,58.73
2024-02-05T07:44:26.903Z,58.83
2024-02-05T07:47:55.816Z,58.66
2024-02-05T07:51:28.527Z,58.65
2024-02-05T07:54:57.252Z,57.96
2024-02-05T07:58:36.535Z,57.97
2024-02-05T08:02:15.963Z,58.76
2024-02-05T08:05:32.332Z,57.87
2024-02-05T08:08:51.387Z,57.88
2024-02-05T08:12:01.062Z,57.41
2024-02-05T08:15:17.983Z,57.75
2024-02-05T08:18:28.389Z,58.04
2024-02-05T08:21:48.967Z,58.10
2024-02-05T08:25:19.883Z,58.13
2024-02-05T08:28:47.876Z,58.00
2024-02-05T08:32:01.480Z,57.90
2024-02-05T08:35:13.138Z,57.48
2024-02-05T08:38:27.386Z,57.13
2024-02-05T08:41:39.684Z,57.51
2024-02-05T08:45:05.148Z,56.74
2024-02-05T08:48:29.667Z,56.80
2024-02-05T08:51:40.713Z,56.39
2024-02-05T08:54:53.776Z,56.62
2024-02-05T08:58:15.630Z,56.21
2024-02-05T09:01:30.519Z,56.75
2024-02-05T09:04:42.372Z,56.25
2024-02-05T09:07:56.764Z,56.05
2024-02-05T09:11:14.953Z,55.95
2024-02-05T09:14:25.150Z,56.00
2024-02-05T09:17:47.953Z,55.75
2024-02-05T09:20:57.598Z,55.72
2024-02-05T09:24:15.607Z,55.42
2024-02-05T09:27:37.600Z,55.19
2024-02-05T09:30:58.754Z,55.04
2024-02-05T09:34:18.749Z,55.13
2024-02-05T09:37:34.558Z,55.07
2024-02-05T09:41:04.788Z,55.03
2024-02-05T09:44:37.267Z,54.69
2024-02-05T09:47:49.801Z,54.20
2024-02-05T09:51:12.627Z,54.07
2024-02-05T09:54:24.963Z,53.99
2024-02-05T09:57:38.480Z,53.54
2024-02-05T10:00:50.513Z,53.57
2024-02-05T10:04:06.069Z,52.58
2024-02-05T10:07:34.518Z,52.93
2024-02-05T10:11:06.849Z,52.17
2024-02-05T10:14:35.846Z,52.49
2024-02-05T10:17:49.416Z,52.58
2024-02-05T10:21:16.780Z,52.78
2024-02-05T10:24:27.749Z,52.55
2024-02-05T10:27:38.433Z,52.06
2024-02-05T10:30:49.659Z,52.06
2024-02-05T10:34:19.706Z,51.78
2024-02-05T10:37:54.458Z,51.42
2024-02-05T10:41:03.005Z,51.79
2024-02-05T10:44:49.986Z,51.64
2024-02-05T10:48:19.535Z,51.32
2024-02-05T10:51:33.113Z,51.62
2024-02-05T10:55:01.710Z,50.69
2024-02-05T10:58:33.038Z,50.93
2024-02-05T11:01:50.065Z,50.79
2024-02-05T11:05:05.077Z,51.08
2024-02-05T11:08:18.914Z,50.78
2024-02-05T11:11:33.769Z,50.34
2024-02-05T11:15:03.381Z,50.91
2024-02-05T11:18:40.019Z,51.16
2024-02-05T11:22:07.485Z,51.36
2024-02-05T11:25:45.712Z,51.47
2024-02-05T11:29:08.418Z,51.74
2024-02-05T11:32:16.018Z,51.53
2024-02-05T11:35:33.242Z,51.29
2024-02-05T11:38:52.658Z,50.73
2024-02-05T11:42:12.109Z,50.90
2024-02-05T11:45:37.626Z,50.69
2024-02-05T11:49:21.435Z,50.09
2024-02-05T11:52:41.983Z,50.63
2024-02-05T11:56:06.309Z,50.48
2024-02-05T11:59:17.534Z,50.54
2024-02-05T12:02:44.028Z,50.43
2024-02-05T12:06:07.569Z,50.02
2024-02-05T12:09:23.417Z,49.83
2024-02-05T12:12:34.165Z,49.54
2024-02-05T12:16:00.436Z,49.75
2024-02-05T12:19:38.276Z,49.65
2024-02-05T12:22:53.805Z,49.65
2024-02-05T12:26:13.922Z,49.41
2024-02-05T12:29:41.998Z,49.35
2024-02-05T12:33:11.369Z,48.58
2024-02-05T12:36:38.276Z,48.61
2024-02-05T12:39:59.145Z,48.76
2024-02-05T12:43:10.004Z,49.29
2024-02-05T12:46:36.382Z,48.68
2024-02-05T12:50:09.466Z,48.95
2024-02-05T12:54:01.761Z,48.97
2024-02-05T12:57:13.293Z,49.34
2024-02-05T13:00:40.405Z,49.12
2024-02-05T13:04:02.304Z,49.32
2024-02-05T13:07:34.658Z,48.93
2024-02-05T13:11:15.037Z,48.82
2024-02-05T13:14:45.716Z,48.47
2024-02-05T13:18:16.963Z,48.46
2024-02-05T13:21:46.960Z,48.36
2024-02-05T13:25:07.115Z,49.28
2024-02-05T13:28:18.460Z,48.83
2024-02-05T13:31:36.363Z,49.09
2024-02-05T13:34:45.585Z,49.28
2024-02-05T13:38:05.975Z,48.96
2024-02-05T13:41:29.716Z,48.80
2024-02-05T13:44:41.665Z,49.27
2024-02-05T13:47:54.640Z,49.96
2024-02-05T13:51:08.120Z,49.48
2024-02-05T13:54:32.960Z,49.31
2024-02-05T13:58:08.699Z,49.42
2024-02-05T14:01:38.719Z,49.20
2024-02-05T14:04:52.611Z,49.62
2024-02-05T14:08:00.021Z,49.53
2024-02-05T14:11:27.846Z,49.91
2024-02-05T14:14:42.471Z,49.48
2024-02-05T14:17:51.865Z,49.87
2024-02-05T14:21:11.580Z,49.88
2024-02-05T14:24:35.748Z,49.91
2024-02-05T14:28:05.002Z,50.17
2024-02-05T14:31:16.405Z,50.13
2024-02-05T14:34:28.254Z,49.91
2024-02-05T14:37:37.942Z,50.13
2024-02-05T14:40:50.494Z,50.05
2024-02-05T14:43:58.317Z,49.81
2024-02-05T14:47:24.439Z,49.99
2024-02-05T14:50:38.047Z,50.12
2024-02-05T14:53:42.381Z,50.01
2024-02-05T14:56:50.674Z,50.08
2024-02-05T15:00:01.432Z,50.29
2024-02-05T15:03:29.371Z,50.18
2024-02-05T15:06:52.750Z,50.50
2024-02-05T15:10:09.760Z,50.23
2024-02-05T15:13:21.797Z,50.69
2024-02-05T15:16:40.472Z,50.28
2024-02-05T15:20:06.445Z,50.62
2024-02-05T15:23:26.296Z,50.37
2024-02-05T15:26:48.023Z,50.48
2024-02-05T15:29:55.149Z,50.33
2024-02-05T15:33:15.457Z,50.28
2024-02-05T15:36:22.620Z,50.08
2024-02-05T15:39:34.420Z,49.86
2024-02-05T15:42:42.010Z,50.06
2024-02-05T15:45:59.230Z,50.00
2024-02-05T15:49:18.784Z,49.39
2024-02-05T15:52:23.768Z,49.55
2024-02-05T15:55:40.903Z,49.61
2024-02-05T15:59:12.254Z,49.49
2024-02-05T16:02:33.545Z,49.41
2024-02-05T16:06:07.395Z,49.71
2024-02-05T16:09:23.262Z,49.84
2024-02-05T16:12:37.456Z,49.61
2024-02-05T16:15:59.784Z,50.26
2024-02-05T16:19:05.367Z,49.97
2024-02-05T16:22:24.201Z,50.40
2024-02-05T16:25:53.092Z,50.01
2024-02-05T16:29:03.373Z,50.10
2024-02-05T16:32:26.200Z,50.44
2024-02-05T16:35:45.487Z,50.28
2024-02-05T16:38:53.135Z,50.31
2024-02-05T16:41:59.383Z,51.07
2024-02-05T16:45:17.194Z,51.01
2024-02-05T16:48:36.765Z,50.48
2024-02-05T16:51:48.102Z,50.28
2024-02-05T16:55:06.930Z,50.39
2024-02-05T16:58:38.124Z,50.19
2024-02-05T17:01:59.510Z,50.61
2024-02-05T17:05:22.471Z,50.93
2024-02-05T17:08:50.968Z,50.61
2024-02-05T17:12:11.693Z,50.27
2024-02-05T17:15:29.393Z,50.89
2024-02-05T17:18:52.441Z,50.92
2024-02-05T17:22:07.397Z,50.99
2024-02-05T17:25:28.242Z,51.27
2024-02-05T17:28:49.484Z,50.90
2024-02-05T17:32:03.340Z,50.80
2024-02-05T17:35:09.123Z,50.82
2024-02-05T17:38:26.470Z,50.74
2024-02-05T17:41:34.303Z,51.25
2024-02-05T17:44:49.993Z,50.20
2024-02-05T17:48:08.978Z,50.43
2024-02-05T17:51:25.649Z,50.54
2024-02-05T17:54:41.464Z,50.06
2024-02-05T17:57:46.794Z,50.48
2024-02-05T18:01:13.447Z,50.35
2024-02-05T18:04:31.811Z,51.04
2024-02-05T18:07:48.948Z,49.94
2024-02-05T18:11:02.297Z,50.24
2024-02-05T18:14:12.650Z,50.30
2024-02-05T18:17:20.921Z,50.40
2024-02-05T18:20:38.312Z,49.67
2024-02-05T18:23:56.811Z,49.22
2024-02-05T18:27:04.576Z,49.37
2024-02-05T18:30:21.972Z,49.44
2024-02-05T18:33:30.385Z,49.03
2024-02-05T18:36:54.601Z,48.85
2024-02-05T18:39:57.776Z,48.69
2024-02-05T18:43:24.950Z,47.98
2024-02-05T18:47:00.364Z,48.41
2024-02-05T18:50:31.210Z,48.71
2024-02-05T18:54:05.014Z,48.35
2024-02-05T18:57:27.483Z,47.96
2024-02-05T19:00:44.494Z,48.22
2024-02-05T19:04:08.180Z,47.77
2024-02-05T19:07:37.112Z,47.17
2024-02-05T19:10:51.891Z,47.01
2024-02-05T19:14:02.796Z,47.14
2024-02-05T19:17:28.849Z,47.13
2024-02-05T19:20:36.863Z,47.77
2024-02-05T19:23:51.520Z,47.15
2024-02-05T19:27:18.937Z,47.45
2024-02-05T19:30:25.716Z,47.42
2024-02-05T19:33:38.207Z,47.99
2024-02-05T19:36:54.556Z,48.12
2024-02-05T19:40:15.859Z,48.56
2024-02-05T19:43:35.669Z,47.21
2024-02-05T19:47:00.435Z,47.85
2024-02-05T19:50:20.265Z,47.32
2024-02-05T19:53:41.246Z,47.26
2024-02-05T19:56:53.664Z,47.96
2024-02-05T20:00:22.946Z,47.56
2024-02-05T20:03:54.957Z,48.43
2024-02-05T20:07:08.274Z,48.93
2024-02-05T20:10:20.923Z,47.99
2024-02-05T20:13:47.707Z,47.88
2024-02-05T20:17:03.480Z,47.61
2024-02-05T20:20:13.646Z,47.84
2024-02-05T20:23:17.401Z,47.62
2024-02-05T20:26:23.543Z,47.58
2024-02-05T20:29:43.260Z,48.03
2024-02-05T20:33:02.743Z,47.25
2024-02-05T20:36:15.680Z,47.21
2024-02-05T20:39:39.253Z,47.16
2024-02-05T20:43:06.724Z,47.72
2024-02-05T20:46:28.818Z,47.52
2024-02-05T20:49:52.207Z,49.11
2024-02-05T20:53:09.638Z,48.38
2024-02-05T20:56:35.872Z,49.70
2024-02-05T20:59:53.287Z,50.19
2024-02-05T21:03:15.572Z,48.30
2024-02-05T21:06:28.431Z,47.23
2024-02-05T21:09:41.693Z,47.09
2024-02-05T21:13:03.193Z,47.08
2024-02-05T21:16:25.678Z,47.03
2024-02-05T21:19:51.894Z,47.51
2024-02-05T21:23:09.994Z,47.15
2024-02-05T21:26:21.334Z,46.41
2024-02-05T21:29:32.843Z,47.65
2024-02-05T21:32:56.714Z,48.01
2024-02-05T21:36:08.374Z,47.44
2024-02-05T21:39:15.275Z,47.42
2024-02-05T21:42:22.572Z,48.56
2024-02-05T21:45:41.710Z,48.06
2024-02-05T21:49:09.812Z,47.14
2024-02-05T21:52:27.698Z,46.82
2024-02-05T21:55:52.277Z,46.47
2024-02-05T21:59:20.727Z,46.47
2024-02-05T22:02:38.298Z,46.80
2024-02-05T22:06:02.680Z,46.56
2024-02-05T22:09:28.139Z,46.50
2024-02-05T22:12:58.372Z,46.69
2024-02-05T22:16:12.720Z,46.75
2024-02-05T22:19:20.993Z,46.06
2024-02-05T22:22:40.457Z,46.81
2024-02-05T22:26:10.280Z,46.85
2024-02-05T22:29:44.385Z,46.14
2024-02-05T22:33:05.549Z,45.83
2024-02-05T22:36:18.595Z,45.23
2024-02-05T22:39:40.427Z,45.34
2024-02-05T22:42:48.809Z,45.04
2024-02-05T22:46:11.237Z,44.77
2024-02-05T22:49:33.624Z,44.28
2024-02-05T22:52:55.179Z,44.76
2024-02-05T22:56:07.386Z,44.62
2024-02-05T22:59:31.424Z,44.37
2024-02-05T23:02:58.624Z,44.34
2024-02-05T23:06:25.588Z,44.31
2024-02-05T23:09:52.591Z,43.79
2024-02-05T23:13:07.652Z,44.11
2024-02-05T23:16:35.040Z,43.67
2024-02-05T23:19:56.194Z,43.02
2024-02-05T23:23:02.457Z,43.02
2024-02-05T23:26:31.006Z,43.46
2024-02-05T23:30:15.458Z,43.12
2024-02-05T23:33:41.233Z,43.96
2024-02-05T23:37:11.975Z,43.69
2024-02-05T23:40:39.571Z,43.67
2024-02-05T23:43:59.490Z,43.72
2024-02-05T23:47:37.580Z,42.20
2024-02-05T23:55:34.241Z,44.79
2024-02-05T23:58:39.189Z,45.39
